Time;durP1;ratioP1;P1;durP2;ratioP2;P2;SDS_P1;SDS_P2;PMS_P1;PMS_P2;Temp;Humidity;BMP_temperature;BMP_pressure;BME280_temperature;BME280_humidity;BME280_pressure;Samples;Min_cycle;Max_cycle;Signal;HPM_P1;HPM_P2
2023/08/07 00:01:33;;;;;;;;;;;;;;;;;;6307544;28;19928;-61
2023/08/07 00:04:33;;;;;;;;;;;;;;;;;;6308356;28;19935;-59
2023/08/07 00:07:34;;;;;;;;;;;;;;;;;;6308148;28;19928;-60
2023/08/07 00:10:34;;;;;;;;;;;;;;;;;;6311933;28;19930;-60
2023/08/07 00:13:35;;;;;;;;;;;;;;;;;;6310318;28;19928;-59
2023/08/07 00:16:35;;;;;;;;;;;;;;;;;;6308847;28;19953;-59
2023/08/07 00:19:36;;;;;;;;;;;;;;;;;;6311129;28;19954;-59
2023/08/07 00:22:37;;;;;;;;;;;;;;;;;;6307153;28;19931;-59
2023/08/07 00:25:37;;;;;;;;;;;;;;;;;;6309933;28;19924;-60
2023/08/07 00:28:38;;;;;;;;;;;;;;;;;;6307179;28;20369;-60
2023/08/07 00:31:38;;;;;;;;;;;;;;;;;;6309000;28;20731;-59
2023/08/07 00:34:39;;;;;;;;;;;;;;;;;;6307838;28;20373;-59
2023/08/07 00:37:39;;;;;;;;;;;;;;;;;;6308548;28;19982;-60
2023/08/07 00:40:40;;;;;;;;;;;;;;;;;;6293715;28;19928;-60
2023/08/07 00:43:41;;;;;;;;;;;;;;;;;;6302586;28;19928;-58
2023/08/07 00:46:42;;;;;;;;;;;;;;;;;;6304550;28;19928;-58
2023/08/07 00:49:43;;;;;;;;;;;;;;;;;;6306860;28;19934;-60
2023/08/07 00:52:43;;;;;;;;;;;;;;;;;;6303521;28;19928;-60
2023/08/07 00:55:44;;;;;;;;;;;;;;;;;;6309565;28;20614;-60
2023/08/07 00:58:44;;;;;;;;;;;;;;;;;;6291601;28;20347;-60
2023/08/07 01:01:45;;;;;;;;;;;;;;;;;;6309764;28;19927;-60
2023/08/07 01:04:46;;;;;;;;;;;;;;;;;;6307043;28;20390;-59
2023/08/07 01:07:47;;;;;;;;;;;;;;;;;;6308752;28;19923;-59
2023/08/07 01:11:06;;;;;;;;;;;;;;;;;;6309539;28;20339;-59
2023/08/07 01:14:19;;;;;;;;;;;;;;;;;;6307193;28;21048;-59
2023/08/07 01:17:21;;;;;;;;;;;;;;;;;;6305022;28;19924;-59
2023/08/07 01:20:22;;;;;;;;;;;;;;;;;;6308430;28;19928;-60
2023/08/07 01:23:22;;;;;;;;;;;;;;;;;;6304520;28;19935;-60
2023/08/07 01:26:23;;;;;;;;;;;;;;;;;;6307389;28;19927;-59
2023/08/07 01:29:31;;;;;;;;;;;;;;;;;;6306377;28;19928;-60
2023/08/07 01:32:32;;;;;;;;;;;;;;;;;;6303791;28;21393;-59
2023/08/07 01:35:34;;;;;;;;;;;;;;;;;;6305190;28;19928;-61
2023/08/07 01:38:36;;;;;;;;;;;;;;;;;;6306252;28;19928;-61
2023/08/07 01:41:36;;;;;;;;;;;;;;;;;;6307588;28;20338;-60
2023/08/07 01:44:37;;;;;;;;;;;;;;;;;;6304915;28;19934;-59
2023/08/07 01:47:38;;;;;;;;;;;;;;;;;;6305664;28;19935;-59
2023/08/07 01:50:39;;;;;;;;;;;;;;;;;;6307597;28;19972;-60
2023/08/07 01:53:39;;;;;;;;;;;;;;;;;;6307151;28;21144;-61
2023/08/07 01:56:40;;;;;;;;;;;;;;;;;;6306710;28;19923;-60
2023/08/07 01:59:40;;;;;;;;;;;;;;;;;;6303896;28;20484;-60
2023/08/07 02:02:41;;;;;;;;;;;;;;;;;;6305475;28;19972;-60
2023/08/07 02:05:44;;;;;;;;;;;;;;;;;;6302620;28;19927;-59
2023/08/07 02:08:45;;;;;;;;;;;;;;;;;;6305047;28;19980;-60
2023/08/07 02:11:45;;;;;;;;;;;;;;;;;;6307761;28;19923;-60
2023/08/07 02:14:46;;;;;;;;;;;;;;;;;;6304061;28;20383;-60
2023/08/07 02:17:46;;;;;;;;;;;;;;;;;;6301637;28;19976;-59
2023/08/07 02:20:47;;;;;;;;;;;;;;;;;;6304909;28;19924;-59
2023/08/07 02:23:47;;;;;;;;;;;;;;;;;;6304952;28;19959;-60
2023/08/07 02:26:48;;;;;;;;;;;;;;;;;;6301132;28;20344;-60
2023/08/07 02:29:48;;;;;;;;;;;;;;;;;;6304692;28;20286;-57
2023/08/07 02:32:49;;;;;;;;;;;;;;;;;;6302889;28;19924;-58
2023/08/07 02:35:50;;;;;;;;;;;;;;;;;;6305244;28;20291;-59
2023/08/07 02:38:51;;;;;;;;;;;;;;;;;;6305100;28;19927;-60
2023/08/07 02:41:51;;;;;;;;;;;;;;;;;;6309544;28;19923;-60
2023/08/07 02:44:52;;;;;;;;;;;;;;;;;;6304722;28;19953;-60
2023/08/07 02:47:52;;;;;;;;;;;;;;;;;;6303045;28;19935;-59
2023/08/07 02:50:53;;;;;;;;;;;;;;;;;;6304861;28;20900;-60
2023/08/07 02:53:53;;;;;;;;;;;;;;;;;;6305804;28;19931;-59
2023/08/07 02:56:54;;;;;;;;;;;;;;;;;;6300872;28;19935;-60
2023/08/07 02:59:54;;;;;;;;;;;;;;;;;;6303895;28;19924;-60
2023/08/07 03:02:55;;;;;;;;;;;;;;;;;;6306173;28;20031;-59
2023/08/07 03:05:55;;;;;;;;;;;;;;;;;;6306962;28;19939;-59
2023/08/07 03:08:56;;;;;;;;;;;;;;;;;;6305903;28;19920;-59
2023/08/07 03:12:02;;;;;;;;;;;;;;;;;;6300883;28;19920;-58
2023/08/07 03:15:04;;;;;;;;;;;;;;;;;;6294736;28;19923;-58
2023/08/07 03:18:05;;;;;;;;;;;;;;;;;;6298180;28;19977;-60
2023/08/07 03:21:05;;;;;;;;;;;;;;;;;;6298326;28;20359;-58
2023/08/07 03:24:06;;;;;;;;;;;;;;;;;;6301279;28;19920;-58
2023/08/07 03:27:06;;;;;;;;;;;;;;;;;;6299565;28;19959;-59
2023/08/07 03:30:07;;;;;;;;;;;;;;;;;;6298236;28;20002;-60
2023/08/07 03:33:08;;;;;;;;;;;;;;;;;;6299881;28;20556;-59
2023/08/07 03:36:09;;;;;;;;;;;;;;;;;;6297200;28;19920;-60
2023/08/07 03:39:11;;;;;;;;;;;;;;;;;;6307445;28;20513;-58
2023/08/07 03:42:12;;;;;;;;;;;;;;;;;;6320637;28;19962;-59
2023/08/07 03:45:13;;;;;;;;;;;;;;;;;;6302366;28;19928;-59
2023/08/07 03:48:13;;;;;;;;;;;;;;;;;;6298012;28;19928;-58
2023/08/07 03:51:17;;;;;;;;;;;;;;;;;;6299818;28;20386;-58
2023/08/07 03:54:17;;;;;;;;;;;;;;;;;;6294207;28;19920;-58
2023/08/07 03:57:18;;;;;;;;;;;;;;;;;;6290572;28;19942;-57
2023/08/07 04:00:18;;;;;;;;;;;;;;;;;;6296098;28;19931;-58
2023/08/07 04:03:19;;;;;;;;;;;;;;;;;;6296769;28;19924;-59
2023/08/07 04:06:20;;;;;;;;;;;;;;;;;;6297943;28;19947;-58
2023/08/07 04:09:21;;;;;;;;;;;;;;;;;;6302508;28;19927;-60
2023/08/07 04:12:22;;;;;;;;;;;;;;;;;;6307827;28;19920;-59
2023/08/07 04:15:22;;;;;;;;;;;;;;;;;;6307066;28;19932;-58
2023/08/07 04:18:23;;;;;;;;;;;;;;;;;;6309647;28;19924;-58
2023/08/07 04:21:23;;;;;;;;;;;;;;;;;;6309612;28;19932;-59
2023/08/07 04:24:24;;;;;;;;;;;;;;;;;;6313205;28;19977;-60
2023/08/07 04:27:24;;;;;;;;;;;;;;;;;;6310584;28;19924;-61
2023/08/07 04:30:25;;;;;;;;;;;;;;;;;;6312114;28;19928;-61
2023/08/07 04:33:25;;;;;;;;;;;;;;;;;;6316915;28;20057;-60
2023/08/07 04:36:26;;;;;;;;;;;;;;;;;;6301871;28;22151;-60
2023/08/07 04:39:27;;;;;;;;;;;;;;;;;;6299139;28;19920;-61
2023/08/07 04:42:27;;;;;;;;;;;;;;;;;;6300145;28;19927;-61
2023/08/07 04:45:28;;;;;;;;;;;;;;;;;;6298161;28;19924;-59
2023/08/07 04:48:28;;;;;;;;;;;;;;;;;;6299206;28;19920;-61
2023/08/07 04:51:30;;;;;;;;;;;;;;;;;;6299549;28;19938;-61
2023/08/07 04:54:30;;;;;;;;;;;;;;;;;;6300611;28;19928;-61
2023/08/07 04:57:31;;;;;;;;;;;;;;;;;;6297063;28;20817;-61
2023/08/07 05:00:31;;;;;;;;;;;;;;;;;;6296343;28;19931;-60
2023/08/07 05:03:32;;;;;;;;;;;;;;;;;;6297823;28;19924;-60
2023/08/07 05:06:32;;;;;;;;;;;;;;;;;;6296605;28;19928;-60
2023/08/07 05:09:33;;;;;;;;;;;;;;;;;;6296017;28;20395;-60
2023/08/07 05:12:33;;;;;;;;;;;;;;;;;;6298660;28;19931;-58
2023/08/07 05:15:34;;;;;;;;;;;;;;;;;;6300930;28;19920;-58
2023/08/07 05:18:34;;;;;;;;;;;;;;;;;;6302897;28;19924;-60
2023/08/07 05:21:35;;;;;;;;;;;;;;;;;;6295637;28;19989;-59
2023/08/07 05:24:38;;;;;;;;;;;;;;;;;;6298072;28;20360;-60
2023/08/07 05:27:40;;;;;;;;;;;;;;;;;;6296226;28;19920;-60
2023/08/07 05:30:40;;;;;;;;;;;;;;;;;;6296713;28;20386;-61
2023/08/07 05:33:41;;;;;;;;;;;;;;;;;;6294467;28;19920;-60
2023/08/07 05:36:42;;;;;;;;;;;;;;;;;;6296662;28;19928;-60
2023/08/07 05:39:43;;;;;;;;;;;;;;;;;;6295374;28;20446;-60
2023/08/07 05:42:43;;;;;;;;;;;;;;;;;;6292835;28;19927;-60
2023/08/07 05:45:46;;;;;;;;;;;;;;;;;;6296919;28;19924;-61
2023/08/07 05:48:46;;;;;;;;;;;;;;;;;;6296419;28;20483;-60
2023/08/07 05:51:47;;;;;;;;;;;;;;;;;;6276802;28;20316;-60
2023/08/07 05:54:47;;;;;;;;;;;;;;;;;;6293000;28;19920;-60
2023/08/07 05:57:49;;;;;;;;;;;;;;;;;;6294489;28;20019;-60
2023/08/07 06:00:50;;;;;;;;;;;;;;;;;;6296806;28;20450;-59
2023/08/07 06:03:50;;;;;;;;;;;;;;;;;;6295510;28;19959;-62
2023/08/07 06:06:51;;;;;;;;;;;;;;;;;;6294186;28;20581;-56
2023/08/07 06:09:51;;;;;;;;;;;;;;;;;;6295989;28;19931;-61
2023/08/07 06:12:52;;;;;;;;;;;;;;;;;;6296143;28;20415;-62
2023/08/07 06:15:52;;;;;;;;;;;;;;;;;;6294198;28;20283;-62
2023/08/07 06:18:53;;;;;;;;;;;;;;;;;;6295285;28;19924;-58
2023/08/07 06:21:54;;;;;;;;;;;;;;;;;;6295230;28;20371;-57
2023/08/07 06:24:54;;;;;;;;;;;;;;;;;;6293771;28;19924;-61
2023/08/07 06:27:55;;;;;;;;;;;;;;;;;;6292797;28;19943;-60
2023/08/07 06:31:05;;;;;;;;;;;;;;;;;;6295040;28;20664;-61
2023/08/07 06:34:06;;;;;;;;;;;;;;;;;;6294801;28;19924;-61
2023/08/07 06:37:06;;;;;;;;;;;;;;;;;;6296719;28;19931;-61
2023/08/07 06:40:07;;;;;;;;;;;;;;;;;;6294960;28;20518;-61
2023/08/07 06:43:07;;;;;;;;;;;;;;;;;;6294793;28;20627;-60
2023/08/07 06:46:08;;;;;;;;;;;;;;;;;;6294931;28;19924;-61
2023/08/07 06:49:09;;;;;;;;;;;;;;;;;;6295027;28;19921;-61
2023/08/07 06:52:09;;;;;;;;;;;;;;;;;;6295191;28;20378;-62
2023/08/07 06:55:10;;;;;;;;;;;;;;;;;;6277962;28;19927;-59
2023/08/07 06:58:10;;;;;;;;;;;;;;;;;;6296378;28;19935;-59
2023/08/07 07:01:10;;;;;;;;;;;;;;;;;;6301607;28;19924;-59
2023/08/07 07:04:11;;;;;;;;;;;;;;;;;;6299981;28;20289;-59
2023/08/07 07:07:12;;;;;;;;;;;;;;;;;;6315818;28;19930;-59
2023/08/07 07:10:12;;;;;;;;;;;;;;;;;;6308311;28;19924;-59
2023/08/07 07:13:13;;;;;;;;;;;;;;;;;;6299378;28;19935;-58
2023/08/07 07:16:13;;;;;;;;;;;;;;;;;;6301394;28;19928;-60
2023/08/07 07:19:13;;;;;;;;;;;;;;;;;;6300502;28;19931;-59
2023/08/07 07:22:14;;;;;;;;;;;;;;;;;;6301673;28;19924;-61
2023/08/07 07:25:15;;;;;;;;;;;;;;;;;;6299738;28;19940;-61
2023/08/07 07:28:15;;;;;;;;;;;;;;;;;;6299230;28;20011;-59
2023/08/07 07:31:16;;;;;;;;;;;;;;;;;;6299359;28;20361;-59
2023/08/07 07:34:16;;;;;;;;;;;;;;;;;;6297585;28;19924;-60
2023/08/07 07:37:17;;;;;;;;;;;;;;;;;;6299357;28;19932;-59
2023/08/07 07:40:17;;;;;;;;;;;;;;;;;;6295277;28;19932;-60
2023/08/07 07:43:18;;;;;;;;;;;;;;;;;;6297588;28;20138;-61
2023/08/07 07:46:18;;;;;;;;;;;;;;;;;;6300594;28;19930;-61
2023/08/07 07:49:19;;;;;;;;;;;;;;;;;;6298548;28;19924;-61
2023/08/07 07:52:19;;;;;;;;;;;;;;;;;;6296011;28;19927;-61
2023/08/07 07:55:20;;;;;;;;;;;;;;;;;;6298956;28;19920;-60
2023/08/07 07:58:20;;;;;;;;;;;;;;;;;;6299597;28;20009;-60
2023/08/07 08:01:21;;;;;;;;;;;;;;;;;;6299197;28;20351;-59
2023/08/07 08:04:21;;;;;;;;;;;;;;;;;;6299243;28;19928;-60
2023/08/07 08:07:22;;;;;;;;;;;;;;;;;;6296447;28;19920;-60
2023/08/07 08:10:22;;;;;;;;;;;;;;;;;;6297989;28;19924;-60
2023/08/07 08:13:25;;;;;;;;;;;;;;;;;;6300980;28;20433;-61
2023/08/07 08:16:26;;;;;;;;;;;;;;;;;;6295803;28;19927;-60
2023/08/07 08:19:26;;;;;;;;;;;;;;;;;;6298821;28;20587;-61
2023/08/07 08:22:27;;;;;;;;;;;;;;;;;;6298745;28;19967;-59
2023/08/07 08:25:27;;;;;;;;;;;;;;;;;;6296353;28;19935;-61
2023/08/07 08:28:28;;;;;;;;;;;;;;;;;;6300000;28;19920;-60
2023/08/07 08:31:29;;;;;;;;;;;;;;;;;;6298721;28;19924;-58
2023/08/07 08:34:29;;;;;;;;;;;;;;;;;;6294476;28;19925;-61
2023/08/07 08:37:32;;;;;;;;;;;;;;;;;;6298284;28;19920;-61
2023/08/07 08:40:33;;;;;;;;;;;;;;;;;;6298075;28;20371;-61
2023/08/07 08:43:34;;;;;;;;;;;;;;;;;;6297127;28;19935;-60
2023/08/07 08:46:36;;;;;;;;;;;;;;;;;;6297392;28;19920;-60
2023/08/07 08:49:39;;;;;;;;;;;;;;;;;;6295391;28;19963;-59
2023/08/07 08:52:46;;;;;;;;;;;;;;;;;;6298883;28;20282;-61
2023/08/07 08:55:47;;;;;;;;;;;;;;;;;;6296445;28;19927;-60
2023/08/07 08:58:51;;;;;;;;;;;;;;;;;;6296872;28;19928;-60
2023/08/07 09:01:54;;;;;;;;;;;;;;;;;;6296134;28;19925;-60
2023/08/07 09:04:55;;;;;;;;;;;;;;;;;;6295948;28;19925;-61
2023/08/07 09:07:56;;;;;;;;;;;;;;;;;;6298910;28;19920;-61
2023/08/07 09:10:56;;;;;;;;;;;;;;;;;;6297357;28;19943;-60
2023/08/07 09:13:57;;;;;;;;;;;;;;;;;;6297416;28;19946;-61
2023/08/07 09:16:59;;;;;;;;;;;;;;;;;;6295638;28;19927;-60
2023/08/07 09:19:59;;;;;;;;;;;;;;;;;;6295979;28;19923;-61
2023/08/07 09:23:00;;;;;;;;;;;;;;;;;;6296983;28;19925;-61
2023/08/07 09:26:04;;;;;;;;;;;;;;;;;;6297100;28;20477;-59
2023/08/07 09:29:04;;;;;;;;;;;;;;;;;;6298778;28;19920;-59
2023/08/07 09:32:08;;;;;;;;;;;;;;;;;;6297201;28;20791;-60
2023/08/07 09:35:10;;;;;;;;;;;;;;;;;;6309259;28;19920;-58
2023/08/07 09:38:10;;;;;;;;;;;;;;;;;;6296904;28;20386;-56
2023/08/07 09:41:11;;;;;;;;;;;;;;;;;;6296573;28;19935;-57
2023/08/07 09:44:12;;;;;;;;;;;;;;;;;;6294656;28;19919;-56
2023/08/07 09:47:13;;;;;;;;;;;;;;;;;;6295349;28;19924;-61
2023/08/07 09:50:17;;;;;;;;;;;;;;;;;;6296466;28;19924;-59
2023/08/07 09:53:18;;;;;;;;;;;;;;;;;;6298108;28;19920;-58
2023/08/07 09:56:18;;;;;;;;;;;;;;;;;;6297535;28;19927;-59
2023/08/07 09:59:19;;;;;;;;;;;;;;;;;;6296076;28;20286;-61
2023/08/07 10:02:20;;;;;;;;;;;;;;;;;;6296737;28;19981;-56
2023/08/07 10:05:21;;;;;;;;;;;;;;;;;;6295043;28;20366;-58
2023/08/07 10:08:22;;;;;;;;;;;;;;;;;;6294149;28;19928;-57
2023/08/07 10:11:23;;;;;;;;;;;;;;;;;;6296761;28;20015;-61
2023/08/07 10:14:23;;;;;;;;;;;;;;;;;;6294046;28;20285;-60
2023/08/07 10:17:24;;;;;;;;;;;;;;;;;;6294504;28;19925;-60
2023/08/07 10:20:27;;;;;;;;;;;;;;;;;;6296839;28;19927;-59
2023/08/07 10:23:27;;;;;;;;;;;;;;;;;;6293986;28;19924;-59
2023/08/07 10:26:28;;;;;;;;;;;;;;;;;;6295125;28;19958;-61
2023/08/07 10:29:28;;;;;;;;;;;;;;;;;;6292818;28;19924;-58
2023/08/07 10:32:30;;;;;;;;;;;;;;;;;;6294564;28;20384;-60
2023/08/07 10:35:31;;;;;;;;;;;;;;;;;;6290455;28;20070;-60
2023/08/07 10:38:31;;;;;;;;;;;;;;;;;;6290872;28;20362;-60
2023/08/07 10:41:37;;;;;;;;;;;;;;;;;;6295651;28;20401;-60
2023/08/07 10:44:47;;;;;;;;;;;;;;;;;;6292555;28;19920;-61
2023/08/07 10:48:01;;;;;;;;;;;;;;;;;;6293985;28;19961;-61
2023/08/07 10:51:04;;;;;;;;;;;;;;;;;;6292905;28;19931;-61
2023/08/07 10:54:05;;;;;;;;;;;;;;;;;;6292294;28;19946;-58
2023/08/07 10:57:09;;;;;;;;;;;;;;;;;;6295021;28;19920;-60
2023/08/07 11:00:12;;;;;;;;;;;;;;;;;;6294300;28;20367;-60
2023/08/07 11:03:19;;;;;;;;;;;;;;;;;;6292559;28;19921;-61
2023/08/07 11:06:26;;;;;;;;;;;;;;;;;;6295955;28;20014;-60
2023/08/07 11:09:26;;;;;;;;;;;;;;;;;;6295787;28;19920;-61
2023/08/07 11:12:27;;;;;;;;;;;;;;;;;;6296507;28;19920;-60
2023/08/07 11:15:28;;;;;;;;;;;;;;;;;;6290748;28;19920;-62
2023/08/07 11:18:30;;;;;;;;;;;;;;;;;;6289894;28;20036;-60
2023/08/07 11:21:30;;;;;;;;;;;;;;;;;;6297004;28;20022;-59
2023/08/07 11:24:31;;;;;;;;;;;;;;;;;;6292545;28;19935;-62
2023/08/07 11:27:31;;;;;;;;;;;;;;;;;;6294033;28;19946;-59
2023/08/07 11:30:32;;;;;;;;;;;;;;;;;;6303864;28;19993;-60
2023/08/07 11:33:32;;;;;;;;;;;;;;;;;;6295781;28;20393;-61
2023/08/07 11:36:39;;;;;;;;;;;;;;;;;;6295672;28;19923;-57
2023/08/07 11:39:42;;;;;;;;;;;;;;;;;;6292644;28;19936;-59
2023/08/07 11:42:43;;;;;;;;;;;;;;;;;;6294557;28;19928;-58
2023/08/07 11:45:43;;;;;;;;;;;;;;;;;;6298381;28;19924;-58
2023/08/07 11:48:44;;;;;;;;;;;;;;;;;;6299379;28;19924;-58
2023/08/07 11:51:45;;;;;;;;;;;;;;;;;;6296477;28;19927;-59
2023/08/07 11:54:49;;;;;;;;;;;;;;;;;;6299131;28;19924;-57
2023/08/07 11:57:49;;;;;;;;;;;;;;;;;;6300269;28;19959;-59
2023/08/07 12:00:50;;;;;;;;;;;;;;;;;;6299507;28;19931;-59
2023/08/07 12:03:54;;;;;;;;;;;;;;;;;;6296925;28;19928;-57
2023/08/07 12:06:56;;;;;;;;;;;;;;;;;;6299409;28;20431;-58
2023/08/07 12:09:56;;;;;;;;;;;;;;;;;;6297997;28;19920;-59
2023/08/07 12:13:04;;;;;;;;;;;;;;;;;;6298904;28;19920;-57
2023/08/07 12:16:05;;;;;;;;;;;;;;;;;;6299466;28;19924;-56
2023/08/07 12:19:05;;;;;;;;;;;;;;;;;;6297759;28;20347;-58
2023/08/07 12:22:07;;;;;;;;;;;;;;;;;;6299364;28;19938;-60
2023/08/07 12:25:08;;;;;;;;;;;;;;;;;;6298665;28;19927;-61
2023/08/07 12:28:08;;;;;;;;;;;;;;;;;;6298304;28;19919;-61
2023/08/07 12:31:09;;;;;;;;;;;;;;;;;;6296535;28;19943;-61
2023/08/07 12:34:10;;;;;;;;;;;;;;;;;;6298778;28;19924;-61
2023/08/07 12:37:11;;;;;;;;;;;;;;;;;;6297535;28;19930;-60
2023/08/07 12:40:11;;;;;;;;;;;;;;;;;;6299408;28;19920;-62
2023/08/07 12:43:12;;;;;;;;;;;;;;;;;;6299781;28;19925;-62
2023/08/07 12:46:12;;;;;;;;;;;;;;;;;;6298098;28;19928;-59
2023/08/07 12:49:14;;;;;;;;;;;;;;;;;;6296809;28;19924;-59
2023/08/07 12:52:15;;;;;;;;;;;;;;;;;;6299430;28;20811;-61
2023/08/07 12:55:16;;;;;;;;;;;;;;;;;;6307282;28;19935;-61
2023/08/07 12:58:18;;;;;;;;;;;;;;;;;;6309717;28;19935;-60
2023/08/07 13:01:19;;;;;;;;;;;;;;;;;;6305695;28;19928;-57
2023/08/07 13:04:20;;;;;;;;;;;;;;;;;;6308303;28;19930;-55
2023/08/07 13:07:20;;;;;;;;;;;;;;;;;;6306697;28;19940;-61
2023/08/07 13:10:22;;;;;;;;;;;;;;;;;;6302955;28;19923;-58
2023/08/07 13:13:22;;;;;;;;;;;;;;;;;;6309336;28;20472;-58
2023/08/07 13:16:24;;;;;;;;;;;;;;;;;;6310627;28;19923;-61
2023/08/07 13:19:24;;;;;;;;;;;;;;;;;;6306140;28;19920;-62
2023/08/07 13:22:25;;;;;;;;;;;;;;;;;;6304255;28;20475;-56
2023/08/07 13:25:25;;;;;;;;;;;;;;;;;;6305383;28;19955;-60
2023/08/07 13:28:26;;;;;;;;;;;;;;;;;;6305458;28;21264;-58
2023/08/07 13:31:27;;;;;;;;;;;;;;;;;;6303202;28;20410;-62
2023/08/07 13:34:27;;;;;;;;;;;;;;;;;;6308909;28;19928;-62
2023/08/07 13:37:28;;;;;;;;;;;;;;;;;;6307030;28;19928;-61
2023/08/07 13:40:28;;;;;;;;;;;;;;;;;;6304491;28;19928;-60
2023/08/07 13:43:29;;;;;;;;;;;;;;;;;;6303700;28;20371;-59
2023/08/07 13:46:30;;;;;;;;;;;;;;;;;;6304931;28;19928;-62
2023/08/07 13:49:30;;;;;;;;;;;;;;;;;;6306772;28;20534;-61
2023/08/07 13:52:31;;;;;;;;;;;;;;;;;;6304396;28;19931;-61
2023/08/07 13:55:31;;;;;;;;;;;;;;;;;;6307034;28;20683;-59
2023/08/07 13:58:32;;;;;;;;;;;;;;;;;;6306360;28;19924;-59
2023/08/07 14:01:34;;;;;;;;;;;;;;;;;;6304309;28;19924;-60
2023/08/07 14:04:35;;;;;;;;;;;;;;;;;;6306114;28;21766;-59
2023/08/07 14:07:36;;;;;;;;;;;;;;;;;;6306486;28;19974;-59
2023/08/07 14:10:38;;;;;;;;;;;;;;;;;;6304691;28;19974;-60
2023/08/07 14:13:39;;;;;;;;;;;;;;;;;;6302301;28;20652;-59
2023/08/07 14:16:39;;;;;;;;;;;;;;;;;;6305283;28;19935;-57
2023/08/07 14:19:40;;;;;;;;;;;;;;;;;;6304516;28;20402;-59
2023/08/07 14:22:41;;;;;;;;;;;;;;;;;;6306639;28;19972;-58
2023/08/07 14:25:42;;;;;;;;;;;;;;;;;;6305588;28;19926;-60
2023/08/07 14:28:43;;;;;;;;;;;;;;;;;;6304814;28;19930;-58
2023/08/07 14:31:43;;;;;;;;;;;;;;;;;;6303680;28;20046;-62
2023/08/07 14:34:45;;;;;;;;;;;;;;;;;;6306391;28;19925;-60
2023/08/07 14:37:48;;;;;;;;;;;;;;;;;;6307138;28;20336;-61
2023/08/07 14:40:48;;;;;;;;;;;;;;;;;;6301039;28;19928;-57
2023/08/07 14:43:49;;;;;;;;;;;;;;;;;;6306297;28;19989;-59
2023/08/07 14:46:49;;;;;;;;;;;;;;;;;;6312582;28;19951;-62
2023/08/07 14:49:50;;;;;;;;;;;;;;;;;;6294800;28;19974;-58
2023/08/07 14:52:50;;;;;;;;;;;;;;;;;;6315916;28;19928;-60
2023/08/07 14:55:51;;;;;;;;;;;;;;;;;;6316347;28;19924;-61
2023/08/07 14:58:51;;;;;;;;;;;;;;;;;;6318530;28;20245;-61
2023/08/07 15:01:52;;;;;;;;;;;;;;;;;;6309947;28;20054;-59
2023/08/07 15:04:52;;;;;;;;;;;;;;;;;;6319380;28;20379;-61
2023/08/07 15:07:53;;;;;;;;;;;;;;;;;;6320417;28;19920;-61
2023/08/07 15:10:54;;;;;;;;;;;;;;;;;;6312276;28;19923;-59
2023/08/07 15:13:54;;;;;;;;;;;;;;;;;;6322730;28;19963;-59
2023/08/07 15:16:55;;;;;;;;;;;;;;;;;;6315666;28;19927;-60
2023/08/07 15:19:55;;;;;;;;;;;;;;;;;;6318418;28;19920;-62
2023/08/07 15:22:56;;;;;;;;;;;;;;;;;;6319204;28;20536;-60
2023/08/07 15:25:56;;;;;;;;;;;;;;;;;;6320494;28;19920;-61
2023/08/07 15:28:57;;;;;;;;;;;;;;;;;;6318223;28;19938;-59
2023/08/07 15:31:58;;;;;;;;;;;;;;;;;;6322536;28;19924;-61
2023/08/07 15:34:58;;;;;;;;;;;;;;;;;;6322637;28;19923;-61
2023/08/07 15:38:00;;;;;;;;;;;;;;;;;;6318647;28;20012;-60
2023/08/07 15:41:00;;;;;;;;;;;;;;;;;;6320142;28;19973;-61
2023/08/07 15:44:01;;;;;;;;;;;;;;;;;;6327131;28;20294;-60
2023/08/07 15:47:02;;;;;;;;;;;;;;;;;;6324137;28;19931;-59
2023/08/07 15:50:02;;;;;;;;;;;;;;;;;;6315762;28;20012;-59
2023/08/07 15:53:03;;;;;;;;;;;;;;;;;;6320031;28;20000;-61
2023/08/07 15:56:03;;;;;;;;;;;;;;;;;;6317501;28;19931;-60
2023/08/07 15:59:05;;;;;;;;;;;;;;;;;;6323666;28;19923;-61
2023/08/07 16:02:07;;;;;;;;;;;;;;;;;;6317098;28;19927;-61
2023/08/07 16:05:08;;;;;;;;;;;;;;;;;;6324313;28;19930;-58
2023/08/07 16:08:08;;;;;;;;;;;;;;;;;;6320938;28;20412;-57
2023/08/07 16:11:09;;;;;;;;;;;;;;;;;;6321855;28;19969;-61
2023/08/07 16:14:09;;;;;;;;;;;;;;;;;;6322128;28;20298;-61
2023/08/07 16:17:10;;;;;;;;;;;;;;;;;;6322416;28;19928;-62
2023/08/07 16:20:10;;;;;;;;;;;;;;;;;;6324612;28;20067;-61
2023/08/07 16:23:11;;;;;;;;;;;;;;;;;;6321949;28;19928;-60
2023/08/07 16:26:11;;;;;;;;;;;;;;;;;;6315916;28;19924;-61
2023/08/07 16:29:12;;;;;;;;;;;;;;;;;;6318217;28;19924;-61
2023/08/07 16:32:12;;;;;;;;;;;;;;;;;;6314178;28;20529;-61
2023/08/07 16:35:13;;;;;;;;;;;;;;;;;;6320317;28;19924;-60
2023/08/07 16:38:14;;;;;;;;;;;;;;;;;;6316815;28;19924;-59
2023/08/07 16:41:15;;;;;;;;;;;;;;;;;;6319391;28;19926;-60
2023/08/07 16:44:15;;;;;;;;;;;;;;;;;;6323313;28;19924;-61
2023/08/07 16:47:16;;;;;;;;;;;;;;;;;;6313440;28;20344;-61
2023/08/07 16:50:17;;;;;;;;;;;;;;;;;;6314600;28;19924;-59
2023/08/07 16:53:17;;;;;;;;;;;;;;;;;;6319595;28;20426;-60
2023/08/07 16:56:18;;;;;;;;;;;;;;;;;;6315381;28;19930;-62
2023/08/07 16:59:18;;;;;;;;;;;;;;;;;;6318339;28;21303;-61
2023/08/07 17:02:21;;;;;;;;;;;;;;;;;;6316612;28;20640;-60
2023/08/07 17:05:22;;;;;;;;;;;;;;;;;;6319212;28;19924;-60
2023/08/07 17:08:23;;;;;;;;;;;;;;;;;;6319471;28;20026;-60
2023/08/07 17:11:24;;;;;;;;;;;;;;;;;;6317619;28;19939;-61
2023/08/07 17:14:25;;;;;;;;;;;;;;;;;;6312736;28;19992;-64
2023/08/07 17:17:25;;;;;;;;;;;;;;;;;;6319299;28;19923;-68
2023/08/07 17:20:26;;;;;;;;;;;;;;;;;;6312395;28;19924;-62
2023/08/07 17:23:26;;;;;;;;;;;;;;;;;;6315610;28;19923;-63
2023/08/07 17:26:29;;;;;;;;;;;;;;;;;;6316809;28;19927;-53
2023/08/07 17:29:29;;;;;;;;;;;;;;;;;;6324804;28;19924;-59
2023/08/07 17:32:30;;;;;;;;;;;;;;;;;;6314928;28;20302;-58
2023/08/07 17:35:31;;;;;;;;;;;;;;;;;;6319114;28;19927;-60
2023/08/07 17:38:32;;;;;;;;;;;;;;;;;;6312717;28;19938;-59
2023/08/07 17:41:32;;;;;;;;;;;;;;;;;;6312500;28;19928;-59
2023/08/07 17:44:33;;;;;;;;;;;;;;;;;;6320781;28;19927;-60
2023/08/07 17:47:33;;;;;;;;;;;;;;;;;;6312038;28;19928;-60
2023/08/07 17:50:34;;;;;;;;;;;;;;;;;;6312215;28;19942;-60
2023/08/07 17:53:34;;;;;;;;;;;;;;;;;;6316423;28;19931;-60
2023/08/07 17:56:35;;;;;;;;;;;;;;;;;;6317281;28;20379;-58
2023/08/07 17:59:36;;;;;;;;;;;;;;;;;;6315895;28;19920;-60
2023/08/07 18:02:36;;;;;;;;;;;;;;;;;;6315315;28;20051;-58
2023/08/07 18:05:37;;;;;;;;;;;;;;;;;;6318723;28;19931;-60
2023/08/07 18:08:38;;;;;;;;;;;;;;;;;;6318769;28;19932;-58
2023/08/07 18:11:38;;;;;;;;;;;;;;;;;;6316488;28;19928;-57
2023/08/07 18:14:39;;;;;;;;;;;;;;;;;;6313734;28;19932;-55
2023/08/07 18:17:40;;;;;;;;;;;;;;;;;;6315579;28;19939;-56
2023/08/07 18:20:40;;;;;;;;;;;;;;;;;;6320161;28;19943;-56
2023/08/07 18:23:41;;;;;;;;;;;;;;;;;;6323085;28;19923;-57
2023/08/07 18:26:43;;;;;;;;;;;;;;;;;;6321167;28;19928;-57
2023/08/07 18:29:44;;;;;;;;;;;;;;;;;;6317044;28;19928;-56
2023/08/07 18:32:45;;;;;;;;;;;;;;;;;;6316444;28;19931;-56
2023/08/07 18:35:45;;;;;;;;;;;;;;;;;;6317588;28;20181;-58
2023/08/07 18:38:46;;;;;;;;;;;;;;;;;;6314384;28;19974;-57
2023/08/07 18:41:46;;;;;;;;;;;;;;;;;;6318529;28;19929;-58
2023/08/07 18:44:47;;;;;;;;;;;;;;;;;;6318119;28;20467;-58
2023/08/07 18:47:47;;;;;;;;;;;;;;;;;;6319383;28;19924;-56
2023/08/07 18:50:49;;;;;;;;;;;;;;;;;;6313220;28;19991;-56
2023/08/07 18:53:49;;;;;;;;;;;;;;;;;;6318647;28;20878;-59
2023/08/07 18:56:52;;;;;;;;;;;;;;;;;;6323114;28;19928;-60
2023/08/07 18:59:52;;;;;;;;;;;;;;;;;;6322068;28;20298;-59
2023/08/07 19:02:53;;;;;;;;;;;;;;;;;;6320635;28;19924;-58
2023/08/07 19:05:54;;;;;;;;;;;;;;;;;;6318284;28;19977;-59
2023/08/07 19:08:54;;;;;;;;;;;;;;;;;;6315504;28;19928;-59
2023/08/07 19:11:55;;;;;;;;;;;;;;;;;;6310654;28;19978;-58
2023/08/07 19:14:56;;;;;;;;;;;;;;;;;;6306156;28;19924;-56
2023/08/07 19:17:56;;;;;;;;;;;;;;;;;;6307797;28;19935;-59
2023/08/07 19:20:57;;;;;;;;;;;;;;;;;;6303903;28;20484;-59
2023/08/07 19:23:57;;;;;;;;;;;;;;;;;;6307103;28;20483;-58
2023/08/07 19:26:58;;;;;;;;;;;;;;;;;;6308371;28;19958;-58
2023/08/07 19:29:59;;;;;;;;;;;;;;;;;;6306674;28;19942;-58
2023/08/07 19:33:00;;;;;;;;;;;;;;;;;;6305260;28;20400;-56
2023/08/07 19:36:00;;;;;;;;;;;;;;;;;;6310177;28;19924;-57
2023/08/07 19:39:01;;;;;;;;;;;;;;;;;;6308940;28;19924;-56
2023/08/07 19:42:01;;;;;;;;;;;;;;;;;;6289440;28;19927;-57
2023/08/07 19:45:02;;;;;;;;;;;;;;;;;;6309384;28;20034;-57
2023/08/07 19:48:03;;;;;;;;;;;;;;;;;;6308956;28;19928;-56
2023/08/07 19:51:03;;;;;;;;;;;;;;;;;;6302756;28;19935;-58
2023/08/07 19:54:04;;;;;;;;;;;;;;;;;;6311565;28;19928;-56
2023/08/07 19:57:05;;;;;;;;;;;;;;;;;;6303340;28;19935;-56
2023/08/07 20:00:05;;;;;;;;;;;;;;;;;;6302433;28;20312;-56
2023/08/07 20:03:07;;;;;;;;;;;;;;;;;;6305348;28;19954;-57
2023/08/07 20:06:07;;;;;;;;;;;;;;;;;;6308041;28;19928;-57
2023/08/07 20:09:08;;;;;;;;;;;;;;;;;;6308130;28;19928;-54
2023/08/07 20:12:08;;;;;;;;;;;;;;;;;;6309639;28;20471;-55
2023/08/07 20:15:09;;;;;;;;;;;;;;;;;;6306345;28;19928;-57
2023/08/07 20:18:10;;;;;;;;;;;;;;;;;;6310589;28;19923;-56
2023/08/07 20:21:12;;;;;;;;;;;;;;;;;;6313955;28;19924;-56
2023/08/07 20:24:12;;;;;;;;;;;;;;;;;;6311649;28;19934;-57
2023/08/07 20:27:13;;;;;;;;;;;;;;;;;;6309865;28;20107;-57
2023/08/07 20:30:13;;;;;;;;;;;;;;;;;;6306882;28;21544;-57
2023/08/07 20:33:14;;;;;;;;;;;;;;;;;;6306214;28;19928;-57
2023/08/07 20:36:15;;;;;;;;;;;;;;;;;;6304708;28;19927;-57